OJAQ/AQJ METAR and TAF weather

Enter ICAO airport designator
Station Type Date Time Source
OJAQ METAR 2021/09/28 16:00 UTC NOAA

OJAQ 281600Z 02010KT CAVOK 31/14 Q0094 NOSIG


Station Type Date Time Source
OJAQ Decoded METAR 2021/09/28 16:00 UTC NOAA

Aqaba Airport, Jordan (OJAQ) 29-38N 035-01E 51M
Sep 28, 2021 - 12:00 PM EDT / 2021.09.28 1600 UTC
Wind: from the NNE (020 degrees) at 12 MPH (10 KT):0
Visibility: greater than 7 mile(s):0
Temperature: 87 F (31 C)
Dew Point: 57 F (14 C)
Relative Humidity: 35%
Pressure (altimeter): 2.78 in. Hg (0094 hPa)
ob: OJAQ 281600Z 02010KT CAVOK 31/14 Q0094 NOSIG
cycle: 16

Station Type Date Time Source
OJAQ TAF 2021/09/28 12:14 UTC NOAA

TAF OJAQ 281010Z 2812/2918 35010KT 7000 NSC

Example: see airport list